createdAt,value
2018-07-07T00:00:29.800Z,0.00
2018-07-07T00:02:22.712Z,0.00
2018-07-07T00:03:22.734Z,0.00
2018-07-07T00:05:15.668Z,0.00
2018-07-07T00:06:15.668Z,0.00
2018-07-07T00:08:08.577Z,0.00
2018-07-07T00:09:08.599Z,0.00
2018-07-07T00:11:01.541Z,0.00
2018-07-07T00:12:01.536Z,0.00
2018-07-07T00:13:54.943Z,0.00
2018-07-07T00:14:54.966Z,0.00
2018-07-07T00:16:47.897Z,0.00
2018-07-07T00:17:47.895Z,0.00
2018-07-07T00:19:40.823Z,0.00
2018-07-07T00:20:40.824Z,0.00
2018-07-07T00:22:33.757Z,0.00
2018-07-07T00:23:33.755Z,0.00
2018-07-07T00:25:26.693Z,0.00
2018-07-07T00:26:26.691Z,0.00
2018-07-07T00:28:19.601Z,0.00
2018-07-07T00:29:19.624Z,0.00
2018-07-07T00:31:12.554Z,0.00
2018-07-07T00:32:12.554Z,0.00
2018-07-07T00:34:05.463Z,0.00
2018-07-07T00:35:05.484Z,0.00
2018-07-07T00:36:58.412Z,0.00
2018-07-07T00:37:58.413Z,0.00
2018-07-07T00:39:51.324Z,0.00
2018-07-07T00:40:51.347Z,0.00
2018-07-07T00:42:44.276Z,0.00
2018-07-07T00:43:44.281Z,0.00
2018-07-07T00:45:37.217Z,0.00
2018-07-07T00:46:37.209Z,0.00
2018-07-07T00:48:30.628Z,0.00
2018-07-07T00:49:30.639Z,0.00
2018-07-07T00:51:23.574Z,0.00
2018-07-07T00:52:23.581Z,0.00
2018-07-07T00:54:16.482Z,0.00
2018-07-07T00:55:16.502Z,0.00
2018-07-07T00:57:09.432Z,0.00
2018-07-07T00:58:09.431Z,0.00
2018-07-07T01:00:02.344Z,0.00
2018-07-07T01:01:02.367Z,0.00
2018-07-07T01:02:55.297Z,0.00
2018-07-07T01:03:55.295Z,0.00
2018-07-07T01:05:48.222Z,0.00
2018-07-07T01:06:48.223Z,0.00
2018-07-07T01:08:41.131Z,0.00
2018-07-07T01:09:41.155Z,0.00
2018-07-07T01:11:34.086Z,0.00
2018-07-07T01:12:34.087Z,0.00
2018-07-07T01:14:26.997Z,0.00
2018-07-07T01:15:27.016Z,0.00
2018-07-07T01:17:19.952Z,0.00
2018-07-07T01:18:19.950Z,0.00
2018-07-07T01:20:12.859Z,0.00
2018-07-07T01:21:12.878Z,0.00
2018-07-07T01:23:05.811Z,0.00
2018-07-07T01:24:05.823Z,0.00
2018-07-07T01:25:58.726Z,0.00
2018-07-07T01:26:58.742Z,0.00
2018-07-07T01:28:51.678Z,0.00
2018-07-07T01:29:51.678Z,0.00
2018-07-07T01:31:44.607Z,0.00
2018-07-07T01:32:44.607Z,0.00
2018-07-07T01:34:37.517Z,0.00
2018-07-07T01:35:37.537Z,0.00
2018-07-07T01:37:30.467Z,0.00
2018-07-07T01:38:30.467Z,0.00
2018-07-07T01:40:23.381Z,0.00
2018-07-07T01:41:23.394Z,0.00
2018-07-07T01:43:16.362Z,0.00
2018-07-07T01:44:16.327Z,0.00
2018-07-07T01:46:09.235Z,0.00
2018-07-07T01:47:09.256Z,0.00
2018-07-07T01:49:02.196Z,0.00
2018-07-07T01:50:02.185Z,0.00
2018-07-07T01:51:55.612Z,0.00
2018-07-07T01:52:55.610Z,0.00
2018-07-07T01:54:48.522Z,0.00
2018-07-07T01:55:48.541Z,0.00
2018-07-07T01:57:41.471Z,0.00
2018-07-07T01:58:41.472Z,0.00
2018-07-07T02:00:34.451Z,0.00
2018-07-07T02:01:34.398Z,0.00
2018-07-07T02:03:27.332Z,0.00
2018-07-07T02:04:27.332Z,0.00
2018-07-07T02:06:20.245Z,0.00
2018-07-07T02:07:20.263Z,0.00
2018-07-07T02:09:13.189Z,0.00
2018-07-07T02:10:13.191Z,0.00
2018-07-07T02:12:06.119Z,0.00
2018-07-07T02:13:06.121Z,0.00
2018-07-07T02:14:59.099Z,0.00
2018-07-07T02:15:59.082Z,0.00
2018-07-07T02:17:52.060Z,0.00
2018-07-07T02:18:52.016Z,0.00
2018-07-07T02:20:44.966Z,0.00
2018-07-07T02:21:44.959Z,0.00
2018-07-07T02:23:37.917Z,0.00
2018-07-07T02:24:37.906Z,0.00
2018-07-07T02:26:30.815Z,0.00
2018-07-07T02:27:30.836Z,0.00
2018-07-07T02:29:23.796Z,0.00
2018-07-07T02:30:23.762Z,0.00
2018-07-07T02:32:16.671Z,0.00
2018-07-07T02:33:16.692Z,0.00
2018-07-07T02:35:09.633Z,0.00
2018-07-07T02:36:09.619Z,0.00
2018-07-07T02:38:02.584Z,0.00
2018-07-07T02:39:02.552Z,0.00
2018-07-07T02:40:55.457Z,0.00
2018-07-07T02:41:55.479Z,0.00
2018-07-07T02:43:48.408Z,0.00
2018-07-07T02:44:48.411Z,0.00
2018-07-07T02:46:42.320Z,0.00
2018-07-07T02:47:42.335Z,0.00
2018-07-07T02:49:35.265Z,0.00
2018-07-07T02:50:35.260Z,0.00
2018-07-07T02:52:28.173Z,0.00
2018-07-07T02:53:28.207Z,0.00
2018-07-07T02:55:21.156Z,0.00
2018-07-07T02:56:21.155Z,0.00
2018-07-07T02:58:14.099Z,0.00
2018-07-07T02:59:14.075Z,0.00
2018-07-07T03:01:06.984Z,0.00
2018-07-07T03:02:07.006Z,0.00
2018-07-07T03:03:59.934Z,0.00
2018-07-07T03:04:59.933Z,0.00
2018-07-07T03:06:52.842Z,5.63
2018-07-07T03:07:52.862Z,5.63
2018-07-07T03:09:45.794Z,5.63
2018-07-07T03:10:45.791Z,5.63
2018-07-07T03:12:38.695Z,5.63
2018-07-07T03:13:38.717Z,5.63
2018-07-07T03:15:31.642Z,5.63
2018-07-07T03:16:31.642Z,5.63
2018-07-07T03:18:24.553Z,11.25
2018-07-07T03:19:24.571Z,11.25
2018-07-07T03:21:17.496Z,11.25
2018-07-07T03:22:17.498Z,11.25
2018-07-07T03:24:10.426Z,11.25
2018-07-07T03:25:10.425Z,16.88
2018-07-07T03:27:03.331Z,16.88
2018-07-07T03:28:03.368Z,16.88
2018-07-07T03:29:56.280Z,22.50
2018-07-07T03:30:56.279Z,28.13
2018-07-07T03:32:49.190Z,28.13
2018-07-07T03:33:49.212Z,33.75
2018-07-07T03:35:42.140Z,33.75
2018-07-07T03:36:42.139Z,39.38
2018-07-07T03:38:35.045Z,45.00
2018-07-07T03:39:35.064Z,45.00
2018-07-07T03:41:28.001Z,45.00
2018-07-07T03:42:27.994Z,45.00
2018-07-07T03:44:20.921Z,50.63
2018-07-07T03:45:20.924Z,50.63
2018-07-07T03:47:13.869Z,50.63
2018-07-07T03:48:13.848Z,50.63
2018-07-07T03:50:06.775Z,61.88
2018-07-07T03:51:06.775Z,61.88
2018-07-07T03:52:59.684Z,61.88
2018-07-07T03:53:59.704Z,56.25
2018-07-07T03:55:52.631Z,67.50
2018-07-07T03:56:52.632Z,67.50
2018-07-07T03:58:45.560Z,67.50
2018-07-07T03:59:45.561Z,67.50
2018-07-07T04:01:38.490Z,61.88
2018-07-07T04:02:38.490Z,61.88
2018-07-07T04:04:31.420Z,67.50
2018-07-07T04:05:31.420Z,67.50
2018-07-07T04:07:24.469Z,73.13
2018-07-07T04:08:24.490Z,73.13
2018-07-07T04:10:17.423Z,90.00
2018-07-07T04:11:17.422Z,90.00
2018-07-07T04:13:10.332Z,101.25
2018-07-07T04:14:10.353Z,101.25
2018-07-07T04:16:03.280Z,95.63
2018-07-07T04:17:03.280Z,95.63
2018-07-07T04:18:56.191Z,101.25
2018-07-07T04:19:56.212Z,112.50
2018-07-07T04:21:49.351Z,135.00
2018-07-07T04:22:49.351Z,163.13
2018-07-07T04:24:42.785Z,208.13
2018-07-07T04:25:42.787Z,225.00
2018-07-07T04:27:35.695Z,241.88
2018-07-07T04:28:35.716Z,264.38
2018-07-07T04:30:28.650Z,281.25
2018-07-07T04:31:28.653Z,286.88
2018-07-07T04:33:21.561Z,292.50
2018-07-07T04:34:21.582Z,298.13
2018-07-07T04:36:15.009Z,309.38
2018-07-07T04:37:15.012Z,309.38
2018-07-07T04:39:07.928Z,315.00
2018-07-07T04:40:07.955Z,326.25
2018-07-07T04:42:00.884Z,331.88
2018-07-07T04:43:00.889Z,331.88
2018-07-07T04:44:53.844Z,360.00
2018-07-07T04:45:53.871Z,365.63
2018-07-07T04:47:46.748Z,371.25
2018-07-07T04:48:46.778Z,393.75
2018-07-07T04:50:39.710Z,405.00
2018-07-07T04:51:39.720Z,416.25
2018-07-07T04:53:32.636Z,427.50
2018-07-07T04:54:32.663Z,438.75
2018-07-07T04:56:26.600Z,461.25
2018-07-07T04:57:26.603Z,472.50
2018-07-07T04:59:19.523Z,472.50
2018-07-07T05:00:19.554Z,466.88
2018-07-07T05:02:12.489Z,472.50
2018-07-07T05:03:12.497Z,472.50
2018-07-07T05:05:05.413Z,489.38
2018-07-07T05:06:05.445Z,506.25
2018-07-07T05:07:58.382Z,540.00
2018-07-07T05:08:58.390Z,489.38
2018-07-07T05:10:51.333Z,343.13
2018-07-07T05:11:51.338Z,438.75
2018-07-07T05:13:44.263Z,540.00
2018-07-07T05:14:44.288Z,551.25
2018-07-07T05:16:37.230Z,568.13
2018-07-07T05:17:37.237Z,568.13
2018-07-07T05:19:30.160Z,579.38
2018-07-07T05:20:30.189Z,579.38
2018-07-07T05:22:23.136Z,590.63
2018-07-07T05:23:23.140Z,596.25
2018-07-07T05:25:16.065Z,607.50
2018-07-07T05:26:16.093Z,630.00
2018-07-07T05:28:09.040Z,646.88
2018-07-07T05:29:09.048Z,663.75
2018-07-07T05:31:01.977Z,691.88
2018-07-07T05:32:02.042Z,708.75
2018-07-07T05:33:54.949Z,748.13
2018-07-07T05:34:54.958Z,776.25
2018-07-07T05:36:47.910Z,855.00
2018-07-07T05:37:47.918Z,894.38
2018-07-07T05:39:40.843Z,916.88
2018-07-07T05:40:40.871Z,922.50
2018-07-07T05:42:33.824Z,883.13
2018-07-07T05:43:33.832Z,860.63
2018-07-07T05:45:26.755Z,826.88
2018-07-07T05:46:26.785Z,815.63
2018-07-07T05:48:19.734Z,804.38
2018-07-07T05:49:19.746Z,804.38
2018-07-07T05:51:12.671Z,810.00
2018-07-07T05:52:12.703Z,810.00
2018-07-07T05:54:05.656Z,821.25
2018-07-07T05:55:05.659Z,826.88
2018-07-07T05:56:58.607Z,838.13
2018-07-07T05:57:58.617Z,855.00
2018-07-07T05:59:51.600Z,860.63
2018-07-07T06:00:51.587Z,877.50
2018-07-07T06:02:45.030Z,916.88
2018-07-07T06:03:45.043Z,950.63
2018-07-07T06:05:37.970Z,1068.75
2018-07-07T06:06:38.002Z,1051.88
2018-07-07T06:08:30.957Z,759.38
2018-07-07T06:09:30.965Z,855.00
2018-07-07T06:11:23.898Z,686.25
2018-07-07T06:12:23.923Z,871.88
2018-07-07T06:14:16.879Z,928.13
2018-07-07T06:15:16.885Z,984.38
2018-07-07T06:17:09.840Z,905.63
2018-07-07T06:18:09.845Z,973.13
2018-07-07T06:20:02.785Z,905.63
2018-07-07T06:21:02.808Z,748.13
2018-07-07T06:22:55.756Z,635.63
2018-07-07T06:23:55.767Z,590.63
2018-07-07T06:25:48.703Z,607.50
2018-07-07T06:26:48.744Z,618.75
2018-07-07T06:28:41.680Z,781.88
2018-07-07T06:29:41.694Z,950.63
2018-07-07T06:31:34.620Z,669.38
2018-07-07T06:32:34.652Z,798.75
2018-07-07T06:34:27.604Z,658.13
2018-07-07T06:35:27.610Z,641.25
2018-07-07T06:37:20.583Z,680.63
2018-07-07T06:38:20.568Z,720.00
2018-07-07T06:40:13.492Z,618.75
2018-07-07T06:41:13.521Z,579.38
2018-07-07T06:43:06.485Z,551.25
2018-07-07T06:44:06.474Z,545.63
2018-07-07T06:45:59.396Z,551.25
2018-07-07T06:46:59.424Z,562.50
2018-07-07T06:48:52.371Z,562.50
2018-07-07T06:49:52.380Z,556.88
2018-07-07T06:51:45.309Z,601.88
2018-07-07T06:52:45.331Z,635.63
2018-07-07T06:54:38.273Z,613.13
2018-07-07T06:55:38.283Z,613.13
2018-07-07T06:57:31.221Z,613.13
2018-07-07T06:58:31.233Z,669.38
2018-07-07T07:00:24.215Z,731.25
2018-07-07T07:01:24.191Z,630.00
2018-07-07T07:03:17.137Z,725.63
2018-07-07T07:04:17.151Z,798.75
2018-07-07T07:06:10.069Z,725.63
2018-07-07T07:07:10.097Z,905.63
2018-07-07T07:09:03.074Z,770.63
2018-07-07T07:10:03.084Z,871.88
2018-07-07T07:11:56.073Z,736.88
2018-07-07T07:12:56.036Z,652.50
2018-07-07T07:14:48.989Z,613.13
2018-07-07T07:15:48.990Z,545.63
2018-07-07T07:17:41.915Z,759.38
2018-07-07T07:18:42.069Z,1074.38
2018-07-07T07:20:34.889Z,798.75
2018-07-07T07:21:34.897Z,742.50
2018-07-07T07:23:28.040Z,731.25
2018-07-07T07:24:28.051Z,708.75
2018-07-07T07:26:21.009Z,675.00
2018-07-07T07:27:21.015Z,675.00
2018-07-07T07:29:14.011Z,725.63
2018-07-07T07:30:13.958Z,680.63
2018-07-07T07:32:06.904Z,691.88
2018-07-07T07:33:06.941Z,697.50
2018-07-07T07:34:59.880Z,731.25
2018-07-07T07:35:59.862Z,731.25
2018-07-07T07:37:52.810Z,725.63
2018-07-07T07:38:52.830Z,753.75
2018-07-07T07:40:45.784Z,798.75
2018-07-07T07:41:45.786Z,787.50
2018-07-07T07:43:38.710Z,725.63
2018-07-07T07:44:38.739Z,703.13
2018-07-07T07:46:31.692Z,720.00
2018-07-07T07:47:31.693Z,736.88
2018-07-07T07:49:24.636Z,753.75
2018-07-07T07:50:24.646Z,720.00
2018-07-07T07:52:17.569Z,714.38
2018-07-07T07:53:17.598Z,714.38
2018-07-07T07:55:10.583Z,641.25
2018-07-07T07:56:10.550Z,573.75
2018-07-07T07:58:03.474Z,585.00
2018-07-07T07:59:03.533Z,613.13
2018-07-07T08:00:56.488Z,551.25
2018-07-07T08:01:56.456Z,500.63
2018-07-07T08:03:49.379Z,450.00
2018-07-07T08:04:49.418Z,427.50
2018-07-07T08:06:42.354Z,376.88
2018-07-07T08:07:42.363Z,365.63
2018-07-07T08:09:35.314Z,343.13
2018-07-07T08:10:35.314Z,320.63
2018-07-07T08:12:28.236Z,303.75
2018-07-07T08:13:28.263Z,292.50
2018-07-07T08:15:21.207Z,275.63
2018-07-07T08:16:21.213Z,264.38
2018-07-07T08:18:14.175Z,253.13
2018-07-07T08:19:14.188Z,253.13
2018-07-07T08:21:07.130Z,241.88
2018-07-07T08:22:07.142Z,241.88
2018-07-07T08:24:00.089Z,241.88
2018-07-07T08:25:00.106Z,247.50
2018-07-07T08:26:53.080Z,241.88
2018-07-07T08:27:53.055Z,241.88
2018-07-07T08:29:45.973Z,241.88
2018-07-07T08:30:46.005Z,241.88
2018-07-07T08:32:38.942Z,236.25
2018-07-07T08:33:38.949Z,236.25
2018-07-07T08:35:31.897Z,236.25
2018-07-07T08:36:31.950Z,236.25
2018-07-07T08:38:24.817Z,236.25
2018-07-07T08:39:24.848Z,236.25
2018-07-07T08:41:17.783Z,236.25
2018-07-07T08:42:17.791Z,230.63
2018-07-07T08:44:10.715Z,230.63
2018-07-07T08:45:10.737Z,230.63
2018-07-07T08:47:03.741Z,236.25
2018-07-07T08:48:03.684Z,236.25
2018-07-07T08:49:56.604Z,247.50
2018-07-07T08:50:56.630Z,247.50
2018-07-07T08:52:49.573Z,247.50
2018-07-07T08:53:49.579Z,253.13
2018-07-07T08:55:42.525Z,286.88
2018-07-07T08:56:42.519Z,337.50
2018-07-07T08:58:35.438Z,303.75
2018-07-07T08:59:35.467Z,309.38
2018-07-07T09:01:28.438Z,270.00
2018-07-07T09:02:28.422Z,292.50
2018-07-07T09:04:21.339Z,270.00
2018-07-07T09:05:21.367Z,258.75
2018-07-07T09:07:14.339Z,331.88
2018-07-07T09:08:14.316Z,343.13
2018-07-07T09:10:07.230Z,247.50
2018-07-07T09:11:07.270Z,270.00
2018-07-07T09:13:00.198Z,298.13
2018-07-07T09:14:00.208Z,320.63
2018-07-07T09:15:53.124Z,281.25
2018-07-07T09:16:53.151Z,241.88
2018-07-07T09:18:46.144Z,225.00
2018-07-07T09:19:46.098Z,230.63
2018-07-07T09:21:39.037Z,230.63
2018-07-07T09:22:39.047Z,219.38
2018-07-07T09:24:31.977Z,213.75
2018-07-07T09:25:31.993Z,219.38
2018-07-07T09:27:24.933Z,208.13
2018-07-07T09:28:24.940Z,202.50
2018-07-07T09:30:17.859Z,196.88
2018-07-07T09:31:17.885Z,191.25
2018-07-07T09:33:10.827Z,191.25
2018-07-07T09:34:10.835Z,191.25
2018-07-07T09:36:03.751Z,191.25
2018-07-07T09:37:03.780Z,191.25
2018-07-07T09:38:56.726Z,191.25
2018-07-07T09:39:56.731Z,185.63
2018-07-07T09:41:49.678Z,185.63
2018-07-07T09:42:49.682Z,185.63
2018-07-07T09:44:42.601Z,185.63
2018-07-07T09:45:42.630Z,191.25
2018-07-07T09:47:35.577Z,180.00
2018-07-07T09:48:35.581Z,174.38
2018-07-07T09:50:28.501Z,202.50
2018-07-07T09:51:28.528Z,219.38
2018-07-07T09:53:21.493Z,275.63
2018-07-07T09:54:21.478Z,247.50
2018-07-07T09:56:14.397Z,219.38
2018-07-07T09:57:14.426Z,230.63
2018-07-07T09:59:07.363Z,230.63
2018-07-07T10:00:07.370Z,241.88
2018-07-07T10:02:00.308Z,219.38
2018-07-07T10:03:00.317Z,225.00
2018-07-07T10:04:53.256Z,247.50
2018-07-07T10:05:53.264Z,253.13
2018-07-07T10:07:46.262Z,298.13
2018-07-07T10:08:46.213Z,315.00
2018-07-07T10:10:39.132Z,343.13
2018-07-07T10:11:39.160Z,348.75
2018-07-07T10:13:32.210Z,399.38
2018-07-07T10:14:32.108Z,371.25
2018-07-07T10:16:25.029Z,286.88
2018-07-07T10:17:25.057Z,241.88
2018-07-07T10:19:18.088Z,202.50
2018-07-07T10:20:18.007Z,191.25
2018-07-07T10:22:10.989Z,185.63
2018-07-07T10:23:10.952Z,185.63
2018-07-07T10:25:03.961Z,230.63
2018-07-07T10:26:03.907Z,241.88
2018-07-07T10:27:57.853Z,208.13
2018-07-07T10:28:57.854Z,202.50
2018-07-07T10:30:50.796Z,208.13
2018-07-07T10:31:50.802Z,174.38
2018-07-07T10:33:43.748Z,174.38
2018-07-07T10:34:43.754Z,174.38
2018-07-07T10:36:36.713Z,174.38
2018-07-07T10:37:36.703Z,180.00
2018-07-07T10:39:29.824Z,185.63
2018-07-07T10:40:36.953Z,174.38
2018-07-07T10:42:22.816Z,174.38
2018-07-07T10:43:22.782Z,174.38
2018-07-07T10:45:15.720Z,180.00
2018-07-07T10:46:15.731Z,180.00
2018-07-07T10:48:08.682Z,174.38
2018-07-07T10:49:08.673Z,180.00
2018-07-07T10:51:01.714Z,174.38
2018-07-07T10:52:01.633Z,180.00
2018-07-07T10:53:54.593Z,168.75
2018-07-07T10:54:54.601Z,163.13
2018-07-07T10:56:47.507Z,163.13
2018-07-07T10:57:47.529Z,168.75
2018-07-07T10:59:40.521Z,168.75
2018-07-07T11:00:40.529Z,174.38
2018-07-07T11:02:33.482Z,196.88
2018-07-07T11:03:33.415Z,202.50
2018-07-07T11:05:26.378Z,174.38
2018-07-07T11:06:26.365Z,163.13
2018-07-07T11:08:19.304Z,157.50
2018-07-07T11:09:19.314Z,163.13
2018-07-07T11:11:12.246Z,163.13
2018-07-07T11:12:12.283Z,163.13
2018-07-07T11:14:05.200Z,163.13
2018-07-07T11:15:05.208Z,163.13
2018-07-07T11:16:58.173Z,168.75
2018-07-07T11:17:58.154Z,168.75
2018-07-07T11:19:51.096Z,168.75
2018-07-07T11:20:51.102Z,168.75
2018-07-07T11:22:44.048Z,168.75
2018-07-07T11:23:44.053Z,168.75
2018-07-07T11:25:36.992Z,180.00
2018-07-07T11:26:36.997Z,180.00
2018-07-07T11:28:29.950Z,185.63
2018-07-07T11:29:29.947Z,191.25
2018-07-07T11:31:22.867Z,208.13
2018-07-07T11:32:22.898Z,208.13
2018-07-07T11:34:15.837Z,208.13
2018-07-07T11:35:15.839Z,202.50
2018-07-07T11:37:08.767Z,180.00
2018-07-07T11:38:08.789Z,174.38
2018-07-07T11:40:01.736Z,185.63
2018-07-07T11:41:02.261Z,185.63
2018-07-07T11:42:54.658Z,180.00
2018-07-07T11:43:54.686Z,180.00
2018-07-07T11:45:47.719Z,180.00
2018-07-07T11:46:47.691Z,168.75
2018-07-07T11:48:40.638Z,157.50
2018-07-07T11:49:40.616Z,157.50
2018-07-07T11:51:34.129Z,157.50
2018-07-07T11:52:33.721Z,157.50
2018-07-07T11:54:26.800Z,163.13
2018-07-07T11:55:26.808Z,163.13
2018-07-07T11:57:20.383Z,163.13
2018-07-07T11:58:20.381Z,157.50
2018-07-07T12:00:13.369Z,163.13
2018-07-07T12:01:13.363Z,163.13
2018-07-07T12:03:06.846Z,163.13
2018-07-07T12:04:06.809Z,163.13
2018-07-07T12:05:59.907Z,157.50
2018-07-07T12:06:59.899Z,163.13
2018-07-07T12:08:52.822Z,168.75
2018-07-07T12:09:52.855Z,168.75
2018-07-07T12:11:45.836Z,168.75
2018-07-07T12:12:45.798Z,168.75
2018-07-07T12:14:38.808Z,168.75
2018-07-07T12:15:38.754Z,168.75
2018-07-07T12:17:31.792Z,163.13
2018-07-07T12:18:31.695Z,163.13
2018-07-07T12:20:24.919Z,163.13
2018-07-07T12:21:24.864Z,163.13
2018-07-07T12:23:17.784Z,168.75
2018-07-07T12:24:17.810Z,168.75
2018-07-07T12:26:10.749Z,163.13
2018-07-07T12:27:10.755Z,163.13
2018-07-07T12:29:03.679Z,157.50
2018-07-07T12:30:03.708Z,163.13
2018-07-07T12:31:57.650Z,163.13
2018-07-07T12:32:57.650Z,163.13
2018-07-07T12:34:50.593Z,163.13
2018-07-07T12:35:50.601Z,163.13
2018-07-07T12:37:43.543Z,163.13
2018-07-07T12:38:43.555Z,163.13
2018-07-07T12:40:36.591Z,163.13
2018-07-07T12:41:36.507Z,163.13
2018-07-07T12:43:29.464Z,163.13
2018-07-07T12:44:29.459Z,163.13
2018-07-07T12:46:22.420Z,163.13
2018-07-07T12:47:22.412Z,163.13
2018-07-07T12:49:15.358Z,157.50
2018-07-07T12:50:15.365Z,157.50
2018-07-07T12:52:08.334Z,157.50
2018-07-07T12:53:08.316Z,157.50
2018-07-07T12:55:01.257Z,157.50
2018-07-07T12:56:01.284Z,157.50
2018-07-07T12:57:54.221Z,151.88
2018-07-07T12:58:54.219Z,151.88
2018-07-07T13:00:47.260Z,151.88
2018-07-07T13:01:47.170Z,151.88
2018-07-07T13:03:40.087Z,151.88
2018-07-07T13:04:40.113Z,151.88
2018-07-07T13:06:33.247Z,151.88
2018-07-07T13:07:34.086Z,151.88
2018-07-07T13:09:26.240Z,151.88
2018-07-07T13:10:26.204Z,151.88
2018-07-07T13:12:19.157Z,151.88
2018-07-07T13:13:19.154Z,146.25
2018-07-07T13:15:12.201Z,146.25
2018-07-07T13:16:12.213Z,146.25
2018-07-07T13:18:05.324Z,146.25
2018-07-07T13:19:05.273Z,146.25
2018-07-07T13:20:58.305Z,151.88
2018-07-07T13:21:58.224Z,157.50
2018-07-07T13:23:51.171Z,157.50
2018-07-07T13:24:51.173Z,163.13
2018-07-07T13:26:51.242Z,157.50
2018-07-07T13:27:51.244Z,157.50
2018-07-07T13:29:37.045Z,151.88
2018-07-07T13:30:37.073Z,146.25
2018-07-07T13:32:30.294Z,140.63
2018-07-07T13:33:30.348Z,140.63
2018-07-07T13:35:23.384Z,140.63
2018-07-07T13:36:23.418Z,140.63
2018-07-07T13:38:16.565Z,146.25
2018-07-07T13:39:16.569Z,146.25
2018-07-07T13:41:09.580Z,146.25
2018-07-07T13:42:09.536Z,146.25
2018-07-07T13:44:03.011Z,151.88
2018-07-07T13:45:02.995Z,157.50
2018-07-07T13:46:55.977Z,157.50
2018-07-07T13:47:55.933Z,157.50
2018-07-07T13:49:48.856Z,157.50
2018-07-07T13:50:48.887Z,163.13
2018-07-07T13:52:42.049Z,151.88
2018-07-07T13:53:42.060Z,157.50
2018-07-07T13:55:35.019Z,151.88
2018-07-07T13:56:35.009Z,151.88
2018-07-07T13:58:27.958Z,151.88
2018-07-07T13:59:27.963Z,151.88
2018-07-07T14:01:20.964Z,157.50
2018-07-07T14:02:20.979Z,163.13
2018-07-07T14:04:13.903Z,168.75
2018-07-07T14:05:13.863Z,168.75
2018-07-07T14:07:07.024Z,168.75
2018-07-07T14:08:07.032Z,163.13
2018-07-07T14:10:00.172Z,163.13
2018-07-07T14:11:00.269Z,157.50
2018-07-07T14:12:53.163Z,157.50
2018-07-07T14:13:53.141Z,151.88
2018-07-07T14:15:46.122Z,151.88
2018-07-07T14:16:46.181Z,157.50
2018-07-07T14:18:39.303Z,151.88
2018-07-07T14:19:39.255Z,151.88
2018-07-07T14:21:32.726Z,157.50
2018-07-07T14:22:32.732Z,151.88
2018-07-07T14:24:25.689Z,157.50
2018-07-07T14:25:25.684Z,151.88
2018-07-07T14:27:18.625Z,151.88
2018-07-07T14:28:18.632Z,146.25
2018-07-07T14:30:12.074Z,151.88
2018-07-07T14:31:12.078Z,151.88
2018-07-07T14:33:05.049Z,151.88
2018-07-07T14:34:05.030Z,157.50
2018-07-07T14:37:42.961Z,151.88
2018-07-07T14:38:50.093Z,151.88
2018-07-07T14:40:35.985Z,151.88
2018-07-07T14:41:36.015Z,157.50
2018-07-07T14:43:29.067Z,151.88
2018-07-07T14:44:29.134Z,157.50
2018-07-07T14:46:22.213Z,151.88
2018-07-07T14:47:22.243Z,151.88
2018-07-07T14:49:15.174Z,151.88
2018-07-07T14:50:15.187Z,151.88
2018-07-07T14:52:08.661Z,151.88
2018-07-07T14:53:08.623Z,151.88
2018-07-07T14:55:01.696Z,146.25
2018-07-07T14:56:01.724Z,146.25
2018-07-07T14:57:54.881Z,146.25
2018-07-07T14:58:54.887Z,140.63
2018-07-07T15:00:47.999Z,140.63
2018-07-07T15:01:48.029Z,140.63
2018-07-07T15:03:41.181Z,135.00
2018-07-07T15:04:41.186Z,135.00
2018-07-07T15:06:34.109Z,135.00
2018-07-07T15:07:34.136Z,135.00
2018-07-07T15:09:27.085Z,135.00
2018-07-07T15:10:27.085Z,135.00
2018-07-07T15:12:20.292Z,135.00
2018-07-07T15:13:20.265Z,135.00
2018-07-07T15:15:13.255Z,129.38
2018-07-07T15:16:13.207Z,129.38
2018-07-07T15:18:06.411Z,135.00
2018-07-07T15:19:06.430Z,129.38
2018-07-07T15:20:59.318Z,129.38
2018-07-07T15:21:59.320Z,129.38
2018-07-07T15:23:52.641Z,129.38
2018-07-07T15:24:52.502Z,129.38
2018-07-07T15:26:45.456Z,135.00
2018-07-07T15:27:45.455Z,135.00
2018-07-07T15:29:38.584Z,135.00
2018-07-07T15:30:38.592Z,129.38
2018-07-07T15:32:31.518Z,135.00
2018-07-07T15:33:31.544Z,135.00
2018-07-07T15:35:24.745Z,135.00
2018-07-07T15:36:24.936Z,135.00
2018-07-07T15:38:17.879Z,140.63
2018-07-07T15:39:17.865Z,140.63
2018-07-07T15:41:10.799Z,135.00
2018-07-07T15:42:10.835Z,135.00
2018-07-07T15:44:05.272Z,135.00
2018-07-07T15:45:05.385Z,135.00
2018-07-07T15:46:58.765Z,135.00
2018-07-07T15:47:58.722Z,135.00
2018-07-07T15:49:51.783Z,135.00
2018-07-07T15:50:51.702Z,135.00
2018-07-07T15:52:44.628Z,129.38
2018-07-07T15:53:44.673Z,135.00
2018-07-07T15:55:38.591Z,135.00
2018-07-07T15:56:38.602Z,135.00
2018-07-07T15:58:38.729Z,135.00
2018-07-07T15:59:38.692Z,135.00
2018-07-07T16:01:24.539Z,129.38
2018-07-07T16:02:24.643Z,129.38
2018-07-07T16:04:17.698Z,135.00
2018-07-07T16:05:17.665Z,135.00
2018-07-07T16:07:10.609Z,135.00
2018-07-07T16:08:10.619Z,135.00
2018-07-07T16:10:03.568Z,135.00
2018-07-07T16:11:03.579Z,129.38
2018-07-07T16:12:56.521Z,129.38
2018-07-07T16:13:56.524Z,129.38
2018-07-07T16:15:49.473Z,129.38
2018-07-07T16:16:49.478Z,135.00
2018-07-07T16:18:43.403Z,135.00
2018-07-07T16:19:43.427Z,135.00
2018-07-07T16:21:36.371Z,140.63
2018-07-07T16:22:36.385Z,140.63
2018-07-07T16:24:29.360Z,140.63
2018-07-07T16:25:29.331Z,140.63
2018-07-07T16:27:22.251Z,140.63
2018-07-07T16:28:22.347Z,140.63
2018-07-07T16:30:15.269Z,140.63
2018-07-07T16:31:15.226Z,140.63
2018-07-07T16:33:08.203Z,135.00
2018-07-07T16:34:08.183Z,135.00
2018-07-07T16:36:01.132Z,135.00
2018-07-07T16:37:01.127Z,135.00
2018-07-07T16:38:54.087Z,135.00
2018-07-07T16:39:54.090Z,135.00
2018-07-07T16:41:47.082Z,135.00
2018-07-07T16:42:47.038Z,135.00
2018-07-07T16:44:39.974Z,135.00
2018-07-07T16:45:40.000Z,135.00
2018-07-07T16:47:32.949Z,135.00
2018-07-07T16:48:32.949Z,135.00
2018-07-07T16:50:25.941Z,135.00
2018-07-07T16:51:25.901Z,135.00
2018-07-07T16:53:18.827Z,129.38
2018-07-07T16:54:18.852Z,129.38
2018-07-07T16:56:11.850Z,135.00
2018-07-07T16:57:11.802Z,129.38
2018-07-07T16:59:04.725Z,135.00
2018-07-07T17:00:04.753Z,135.00
2018-07-07T17:01:58.757Z,135.00
2018-07-07T17:02:58.719Z,129.38
2018-07-07T17:04:51.624Z,129.38
2018-07-07T17:05:51.654Z,135.00
2018-07-07T17:07:44.595Z,129.38
2018-07-07T17:08:44.605Z,129.38
2018-07-07T17:10:37.552Z,129.38
2018-07-07T17:11:37.569Z,129.38
2018-07-07T17:13:30.477Z,129.38
2018-07-07T17:14:30.504Z,123.75
2018-07-07T17:16:23.447Z,123.75
2018-07-07T17:17:23.456Z,123.75
2018-07-07T17:19:16.375Z,118.13
2018-07-07T17:20:16.406Z,118.13
2018-07-07T17:22:09.343Z,118.13
2018-07-07T17:23:09.353Z,112.50
2018-07-07T17:25:02.274Z,112.50
2018-07-07T17:26:02.301Z,112.50
2018-07-07T17:27:55.244Z,112.50
2018-07-07T17:28:55.250Z,106.88
2018-07-07T17:30:48.196Z,106.88
2018-07-07T17:31:48.212Z,112.50
2018-07-07T17:33:41.121Z,106.88
2018-07-07T17:34:41.150Z,106.88
2018-07-07T17:36:34.088Z,106.88
2018-07-07T17:37:34.097Z,106.88
2018-07-07T17:39:27.027Z,106.88
2018-07-07T17:40:27.044Z,106.88
2018-07-07T17:42:20.001Z,112.50
2018-07-07T17:43:19.995Z,112.50
2018-07-07T17:45:12.915Z,140.63
2018-07-07T17:46:12.945Z,151.88
2018-07-07T17:48:05.883Z,157.50
2018-07-07T17:49:05.892Z,168.75
2018-07-07T17:50:58.855Z,168.75
2018-07-07T17:51:58.848Z,174.38
2018-07-07T17:53:51.783Z,174.38
2018-07-07T17:54:51.791Z,168.75
2018-07-07T17:56:44.735Z,168.75
2018-07-07T17:57:44.771Z,168.75
2018-07-07T17:59:37.667Z,163.13
2018-07-07T18:00:37.693Z,146.25
2018-07-07T18:02:30.640Z,157.50
2018-07-07T18:03:30.647Z,157.50
2018-07-07T18:05:23.570Z,157.50
2018-07-07T18:06:23.598Z,157.50
2018-07-07T18:08:16.692Z,151.88
2018-07-07T18:09:16.706Z,151.88
2018-07-07T18:11:09.660Z,146.25
2018-07-07T18:12:09.656Z,146.25
2018-07-07T18:14:02.583Z,146.25
2018-07-07T18:15:02.616Z,151.88